Time;durP1;ratioP1;P1;durP2;ratioP2;P2;SDS_P1;SDS_P2;PMS_P1;PMS_P2;Temp;Humidity;BMP_temperature;BMP_pressure;BME280_temperature;BME280_humidity;BME280_pressure;Samples;Min_cycle;Max_cycle;Signal;HPM_P1;HPM_P2
2023/08/12 00:00:32;;;;;;;22.02;15.05;;;;;;;20.84;100.00;101632.47;4968417;28;20042;-73
2023/08/12 00:02:59;;;;;;;21.83;15.45;;;;;;;20.84;100.00;101635.16;4969442;28;20130;-73
2023/08/12 00:05:27;;;;;;;22.15;15.30;;;;;;;20.84;100.00;101635.16;4953661;28;20047;-73
2023/08/12 00:07:54;;;;;;;25.40;15.68;;;;;;;20.82;100.00;101624.53;4969960;28;20129;-73
2023/08/12 00:10:21;;;;;;;25.90;16.42;;;;;;;20.85;100.00;101628.84;4989170;28;20637;-73
2023/08/12 00:12:48;;;;;;;24.17;16.23;;;;;;;20.84;100.00;101625.31;4973106;28;20074;-72
2023/08/12 00:15:15;;;;;;;24.95;15.32;;;;;;;20.85;100.00;101627.03;4990467;28;20046;-72
2023/08/12 00:17:42;;;;;;;24.30;16.67;;;;;;;20.86;100.00;101623.38;4990275;28;20510;-73
2023/08/12 00:20:11;;;;;;;23.15;16.08;;;;;;;20.87;100.00;101622.41;4990518;28;20046;-73
2023/08/12 00:22:39;;;;;;;25.60;16.77;;;;;;;20.87;100.00;101616.22;4990346;28;20069;-72
2023/08/12 00:25:07;;;;;;;22.88;16.42;;;;;;;20.87;100.00;101614.38;4988269;28;20553;-72
2023/08/12 00:27:34;;;;;;;22.42;16.67;;;;;;;20.87;100.00;101605.50;4985096;28;20523;-73
2023/08/12 00:30:02;;;;;;;25.33;16.80;;;;;;;20.88;100.00;101610.75;4953534;28;20050;-72
2023/08/12 00:32:29;;;;;;;23.00;16.15;;;;;;;20.86;100.00;101604.63;4953242;28;20077;-72
2023/08/12 00:34:56;;;;;;;24.42;16.40;;;;;;;20.89;100.00;101603.59;4953118;28;20076;-72
2023/08/12 00:37:23;;;;;;;21.33;15.05;;;;;;;20.89;100.00;101603.59;4952875;28;20097;-72
2023/08/12 00:39:52;;;;;;;22.95;15.77;;;;;;;20.89;100.00;101606.25;4962865;28;20034;-72
2023/08/12 00:42:19;;;;;;;25.95;16.38;;;;;;;20.89;100.00;101607.13;4988294;28;20034;-72
2023/08/12 00:44:46;;;;;;;22.02;16.52;;;;;;;20.90;100.00;101606.16;4971350;28;20042;-72
2023/08/12 00:47:14;;;;;;;28.10;17.25;;;;;;;20.92;100.00;101603.38;4958668;28;20130;-72
2023/08/12 00:49:45;;;;;;;22.25;16.30;;;;;;;20.93;100.00;101600.63;4989160;28;20470;-73
2023/08/12 00:52:14;;;;;;;21.65;16.23;;;;;;;20.95;100.00;101603.19;4988172;28;20054;-72
2023/08/12 00:54:41;;;;;;;25.17;16.35;;;;;;;20.94;100.00;101610.38;5001100;28;20097;-72
2023/08/12 00:57:09;;;;;;;27.17;17.92;;;;;;;20.92;100.00;101598.88;4989498;28;20038;-73
2023/08/12 00:59:37;;;;;;;26.83;17.10;;;;;;;20.90;100.00;101594.59;4989028;28;20038;-74
2023/08/12 01:02:05;;;;;;;24.42;17.15;;;;;;;20.87;100.00;101589.41;4988734;28;20494;-74
2023/08/12 01:04:32;;;;;;;25.80;17.75;;;;;;;20.84;100.00;101587.78;4987895;28;20058;-74
2023/08/12 01:06:59;;;;;;;26.58;18.15;;;;;;;20.84;100.00;101587.78;4989514;28;20562;-74
2023/08/12 01:09:27;;;;;;;26.92;17.52;;;;;;;20.82;100.00;101578.09;4988039;28;20054;-74
2023/08/12 01:12:11;;;;;;;28.52;18.80;;;;;;;20.81;100.00;101579.94;4971606;28;20039;-74
2023/08/12 01:14:55;;;;;;;25.85;17.48;;;;;;;20.78;100.00;101574.75;4955679;28;20085;-74
2023/08/12 01:17:26;;;;;;;24.65;17.90;;;;;;;20.75;100.00;101567.78;4988852;28;20039;-74
2023/08/12 01:19:56;;;;;;;23.90;18.25;;;;;;;20.74;100.00;101567.88;4971561;28;20050;-73
2023/08/12 01:22:29;;;;;;;28.60;18.75;;;;;;;20.70;100.00;101560.94;4971416;28;20050;-73
2023/08/12 01:24:56;;;;;;;28.52;18.33;;;;;;;20.69;100.00;101557.44;4971229;28;20070;-74
2023/08/12 01:27:23;;;;;;;28.42;19.08;;;;;;;20.69;100.00;101556.53;4970968;28;21031;-73
2023/08/12 01:29:52;;;;;;;33.60;19.52;;;;;;;20.71;100.00;101573.38;4970928;28;20054;-73
2023/08/12 01:32:48;;;;;;;29.77;18.80;;;;;;;20.69;100.00;101564.59;4988111;28;20497;-73
2023/08/12 01:35:21;;;;;;;24.20;18.15;;;;;;;20.68;100.00;101565.53;4988995;28;20050;-74
2023/08/12 01:37:51;;;;;;;27.88;18.75;;;;;;;20.70;100.00;101566.31;4954756;28;20054;-73
2023/08/12 01:40:22;;;;;;;31.48;19.58;;;;;;;20.69;100.00;101556.53;4986687;28;20050;-73
2023/08/12 01:42:51;;;;;;;26.60;19.33;;;;;;;20.69;100.00;101543.16;4970631;28;20046;-73
2023/08/12 01:45:19;;;;;;;27.17;19.50;;;;;;;20.69;100.00;101530.63;4988358;28;20047;-73
2023/08/12 01:47:46;;;;;;;29.20;20.73;;;;;;;20.66;100.00;101536.19;4983693;28;20057;-73
2023/08/12 01:50:13;;;;;;;29.83;19.73;;;;;;;20.66;100.00;101529.94;4971542;28;20050;-74
2023/08/12 01:52:41;;;;;;;34.75;21.15;;;;;;;20.65;100.00;101518.38;4970885;28;20109;-73
2023/08/12 01:55:08;;;;;;;28.88;20.58;;;;;;;20.66;100.00;101525.47;4970578;28;20062;-73
2023/08/12 01:57:35;;;;;;;31.73;21.73;;;;;;;20.64;100.00;101525.56;4969589;28;20081;-73
2023/08/12 02:00:06;;;;;;;33.15;21.40;;;;;;;20.64;100.00;101528.25;4957537;28;20090;-73
2023/08/12 02:02:45;;;;;;;31.15;21.08;;;;;;;20.63;100.00;101517.59;4981249;28;20101;-73
2023/08/12 02:05:14;;;;;;;32.22;21.20;;;;;;;20.61;100.00;101509.69;4985132;28;20616;-73
2023/08/12 02:07:42;;;;;;;35.15;21.38;;;;;;;20.61;100.00;101514.16;4954633;28;20035;-73
2023/08/12 02:10:09;;;;;;;31.33;21.42;;;;;;;20.62;100.00;101515.88;4987484;28;20042;-73
2023/08/12 02:12:37;;;;;;;30.67;21.23;;;;;;;20.60;100.00;101520.50;4985513;28;20046;-73
2023/08/12 02:15:04;;;;;;;32.20;20.80;;;;;;;20.60;100.00;101518.66;4974851;28;20070;-73
2023/08/12 02:17:31;;;;;;;30.70;20.80;;;;;;;20.58;100.00;101514.38;4970770;28;20050;-73
2023/08/12 02:19:59;;;;;;;29.92;20.65;;;;;;;20.58;100.00;101519.72;4991270;28;20129;-73
2023/08/12 02:22:26;;;;;;;28.35;19.23;;;;;;;20.57;100.00;101516.16;4968804;28;20078;-73
2023/08/12 02:24:53;;;;;;;26.38;18.13;;;;;;;20.58;100.00;101514.38;4970272;28;20112;-73
2023/08/12 02:27:20;;;;;;;28.83;18.35;;;;;;;20.59;100.00;101516.09;4957616;28;20038;-73
2023/08/12 02:29:47;;;;;;;23.70;16.15;;;;;;;20.58;100.00;101511.69;4974252;28;20049;-73
2023/08/12 02:32:15;;;;;;;25.25;16.35;;;;;;;20.57;100.00;101509.97;4969888;28;20124;-73
2023/08/12 02:34:42;;;;;;;25.08;16.42;;;;;;;20.56;100.00;101505.56;4992057;28;20061;-73
2023/08/12 02:37:09;;;;;;;22.63;14.75;;;;;;;20.56;100.00;101503.72;4973745;28;20045;-73
2023/08/12 02:39:37;;;;;;;20.60;15.18;;;;;;;20.55;100.00;101501.16;4974426;28;20046;-72
2023/08/12 02:42:05;;;;;;;21.70;15.00;;;;;;;20.55;100.00;101504.69;4989998;28;20117;-72
2023/08/12 02:44:32;;;;;;;23.77;15.32;;;;;;;20.54;100.00;101508.34;4973943;28;20057;-73
2023/08/12 02:46:59;;;;;;;25.42;14.50;;;;;;;20.53;100.00;101506.63;4987437;28;20074;-73
2023/08/12 02:49:27;;;;;;;24.40;15.00;;;;;;;20.53;100.00;101498.59;4958312;28;20565;-73
2023/08/12 02:51:54;;;;;;;26.42;15.20;;;;;;;20.53;100.00;101495.03;4973879;28;20707;-73
2023/08/12 02:54:21;;;;;;;21.70;14.45;;;;;;;20.53;100.00;101489.69;4972847;28;20584;-73
2023/08/12 02:56:50;;;;;;;23.25;14.38;;;;;;;20.54;100.00;101491.41;4973618;28;20125;-73
2023/08/12 02:59:17;;;;;;;21.05;14.77;;;;;;;20.52;100.00;101493.31;4986249;28;20053;-72
2023/08/12 03:01:44;;;;;;;23.27;15.52;;;;;;;20.53;100.00;101487.00;4989661;28;20049;-73
2023/08/12 03:04:12;;;;;;;21.27;15.35;;;;;;;20.52;100.00;101486.16;4985067;28;20049;-73
2023/08/12 03:06:39;;;;;;;28.50;16.45;;;;;;;20.51;100.00;101483.53;4973636;28;20034;-72
2023/08/12 03:09:06;;;;;;;25.95;16.98;;;;;;;20.52;100.00;101482.59;4990255;28;20069;-73
2023/08/12 03:11:34;;;;;;;24.60;15.95;;;;;;;20.52;100.00;101479.91;4972716;28;20074;-73
2023/08/12 03:14:03;;;;;;;28.67;18.55;;;;;;;20.53;100.00;101471.81;4982252;28;20446;-73
2023/08/12 03:16:31;;;;;;;29.92;18.17;;;;;;;20.53;100.00;101474.50;4970379;28;20050;-73
2023/08/12 03:18:58;;;;;;;27.20;18.60;;;;;;;20.53;100.00;101469.13;4957770;28;20061;-73
2023/08/12 03:21:25;;;;;;;33.78;19.80;;;;;;;20.53;100.00;101468.25;4990509;28;20050;-73
2023/08/12 03:23:52;;;;;;;29.58;20.52;;;;;;;20.52;100.00;101461.16;4957692;28;20130;-73
2023/08/12 03:26:19;;;;;;;32.10;20.35;;;;;;;20.52;100.00;101459.38;4971076;28;21198;-73
2023/08/12 03:28:47;;;;;;;30.98;21.38;;;;;;;20.51;100.00;101454.97;4984635;28;20038;-73
2023/08/12 03:31:17;;;;;;;31.45;21.33;;;;;;;20.51;100.00;101446.94;4972488;28;20113;-73
2023/08/12 03:33:45;;;;;;;32.42;22.17;;;;;;;20.52;100.00;101454.00;4958844;28;20510;-73
2023/08/12 03:36:13;;;;;;;29.73;19.85;;;;;;;20.52;100.00;101447.78;4970546;28;20047;-73
2023/08/12 03:38:41;;;;;;;34.40;22.30;;;;;;;20.51;100.00;101446.06;4972576;28;20494;-73
2023/08/12 03:41:13;;;;;;;30.20;21.10;;;;;;;20.52;100.00;101447.78;4972230;28;20043;-73
2023/08/12 03:43:40;;;;;;;32.30;20.67;;;;;;;20.53;100.00;101428.97;4972640;28;20105;-73
2023/08/12 03:46:08;;;;;;;29.33;20.92;;;;;;;20.53;100.00;101425.41;4989673;28;20046;-73
2023/08/12 03:48:36;;;;;;;32.20;20.30;;;;;;;20.53;100.00;101439.66;4991216;28;20609;-73
2023/08/12 03:51:04;;;;;;;31.88;21.15;;;;;;;20.52;100.00;101427.22;4970924;28;20053;-73
2023/08/12 03:53:31;;;;;;;30.35;21.52;;;;;;;20.53;100.00;101422.72;4985980;28;20054;-73
2023/08/12 03:55:58;;;;;;;31.85;21.88;;;;;;;20.51;100.00;101416.59;4971656;28;20109;-73
2023/08/12 03:58:26;;;;;;;37.85;22.83;;;;;;;20.51;100.00;101422.84;4970429;28;20085;-73
2023/08/12 04:00:53;;;;;;;34.85;22.65;;;;;;;20.51;100.00;101425.50;4989158;28;20042;-73
2023/08/12 04:03:21;;;;;;;35.30;23.27;;;;;;;20.50;100.00;101423.78;4970580;28;20073;-73
2023/08/12 04:05:52;;;;;;;34.08;22.08;;;;;;;20.49;100.00;101427.41;4990204;28;20509;-73
2023/08/12 04:08:23;;;;;;;34.08;22.48;;;;;;;20.51;100.00;101421.97;4989603;28;20045;-73
2023/08/12 04:10:51;;;;;;;35.13;21.55;;;;;;;20.50;100.00;101421.09;4988827;28;20046;-74
2023/08/12 04:13:18;;;;;;;33.15;22.08;;;;;;;20.49;100.00;101408.66;4987730;28;20046;-73
2023/08/12 04:15:55;;;;;;;31.40;21.50;;;;;;;20.50;100.00;101413.06;4990474;28;20133;-73
2023/08/12 04:18:22;;;;;;;30.33;21.00;;;;;;;20.50;100.00;101414.91;4971734;28;20097;-73
2023/08/12 04:20:51;;;;;;;33.63;21.20;;;;;;;20.50;100.00;101417.59;4970783;28;20050;-73
2023/08/12 04:23:19;;;;;;;30.75;20.05;;;;;;;20.49;100.00;101411.34;4955783;28;20046;-73
2023/08/12 04:25:48;;;;;;;34.78;20.10;;;;;;;20.49;100.00;101414.03;4971602;28;20046;-73
2023/08/12 04:28:17;;;;;;;27.48;18.33;;;;;;;20.48;100.00;101409.63;4971563;28;20380;-73
2023/08/12 04:30:48;;;;;;;26.77;17.92;;;;;;;20.47;100.00;101411.47;4990293;28;20050;-73
2023/08/12 04:33:16;;;;;;;30.13;18.85;;;;;;;20.47;100.00;101406.09;4970670;28;20064;-73
2023/08/12 04:35:45;;;;;;;26.00;19.13;;;;;;;20.48;100.00;101402.47;4984740;28;20521;-73
2023/08/12 04:38:15;;;;;;;25.25;17.70;;;;;;;20.51;100.00;101397.84;4972773;28;20418;-74
2023/08/12 04:40:43;;;;;;;26.85;17.83;;;;;;;20.54;100.00;101401.22;4988233;28;20054;-73
2023/08/12 04:43:13;;;;;;;31.27;17.73;;;;;;;20.58;100.00;101400.06;4974408;28;20134;-73
2023/08/12 04:45:44;;;;;;;28.13;16.15;;;;;;;20.62;100.00;101403.38;4988058;28;20047;-73
2023/08/12 04:48:11;;;;;;;26.60;16.42;;;;;;;20.64;100.00;101394.31;4971164;28;20403;-73
2023/08/12 04:50:39;;;;;;;23.52;16.15;;;;;;;20.68;100.00;101386.94;4971824;28;20057;-73
2023/08/12 04:53:06;;;;;;;21.58;15.82;;;;;;;20.70;100.00;101387.72;4986648;28;20065;-73
2023/08/12 04:55:35;;;;;;;22.67;15.75;;;;;;;20.74;100.00;101383.88;4971613;28;20584;-73
2023/08/12 04:58:03;;;;;;;23.20;16.08;;;;;;;20.77;100.00;101386.38;4970715;28;20490;-73
2023/08/12 05:00:31;;;;;;;23.70;15.60;;;;;;;20.78;100.00;101384.53;4956331;28;20526;-73
2023/08/12 05:02:58;;;;;;;21.80;14.82;;;;;;;20.76;100.00;101387.34;4950490;28;20486;-74
2023/08/12 05:05:26;;;;;;;22.08;15.07;;;;;;;20.75;100.00;101385.59;4968119;28;20458;-74
2023/08/12 05:07:54;;;;;;;21.58;15.07;;;;;;;20.73;100.00;101381.28;4976594;28;20073;-74
2023/08/12 05:10:22;;;;;;;20.73;13.98;;;;;;;20.70;100.00;101390.38;4970983;28;20076;-74
2023/08/12 05:12:52;;;;;;;20.90;13.73;;;;;;;20.69;100.00;101386.00;4992201;28;20038;-75
2023/08/12 05:15:19;;;;;;;18.65;13.45;;;;;;;20.67;100.00;101384.34;4971710;28;20100;-74
2023/08/12 05:17:47;;;;;;;19.90;14.10;;;;;;;20.64;100.00;101386.28;4971105;28;20042;-74
2023/08/12 05:20:18;;;;;;;19.83;13.90;;;;;;;20.62;100.00;101382.84;4956230;28;20050;-74
2023/08/12 05:22:46;;;;;;;21.85;13.55;;;;;;;20.59;100.00;101385.72;4970327;28;20454;-74
2023/08/12 05:25:13;;;;;;;21.00;13.85;;;;;;;20.57;100.00;101382.25;4971313;28;20130;-75
2023/08/12 05:27:41;;;;;;;19.38;12.93;;;;;;;20.55;100.00;101389.53;4966501;28;20030;-74
2023/08/12 05:30:09;;;;;;;20.35;14.43;;;;;;;20.53;100.00;101387.91;4969281;28;20109;-74
2023/08/12 05:32:36;;;;;;;21.15;13.85;;;;;;;20.49;100.00;101387.25;4959467;28;20679;-74
2023/08/12 05:35:03;;;;;;;22.70;14.10;;;;;;;20.47;100.00;101379.31;4988950;28;20105;-75
2023/08/12 05:37:30;;;;;;;20.48;14.70;;;;;;;20.45;100.00;101370.53;4987450;28;20114;-74
2023/08/12 05:39:57;;;;;;;13.85;10.43;;;;;;;20.40;100.00;101366.41;4988783;28;20073;-75
2023/08/12 05:42:24;;;;;;;16.52;11.75;;;;;;;20.32;100.00;101367.78;4985886;28;20534;-74
2023/08/12 05:44:51;;;;;;;15.30;9.55;;;;;;;20.28;100.00;101360.03;4966570;28;20046;-74
2023/08/12 05:47:19;;;;;;;11.65;8.00;;;;;;;20.20;100.00;101347.13;4970684;28;20042;-74
2023/08/12 05:49:46;;;;;;;15.27;7.93;;;;;;;20.10;100.00;101351.34;4988752;28;20051;-74
2023/08/12 05:52:13;;;;;;;12.63;7.53;;;;;;;20.04;100.00;101357.09;4969895;28;20105;-74
2023/08/12 05:54:40;;;;;;;10.45;7.30;;;;;;;19.98;100.00;101352.97;4970346;28;20459;-75
2023/08/12 05:57:07;;;;;;;16.73;8.02;;;;;;;19.91;100.00;101355.16;4969885;28;20120;-74
2023/08/12 05:59:34;;;;;;;12.35;6.95;;;;;;;19.86;100.00;101362.59;4982796;28;20046;-74
2023/08/12 06:02:01;;;;;;;11.15;5.38;;;;;;;19.81;100.00;101360.16;4970685;28;20494;-75
2023/08/12 06:04:28;;;;;;;8.07;5.03;;;;;;;19.72;100.00;101360.75;4988337;28;20069;-75
2023/08/12 06:06:56;;;;;;;11.48;4.78;;;;;;;19.66;100.00;101345.91;4988423;28;20085;-75
2023/08/12 06:09:23;;;;;;;7.72;5.07;;;;;;;19.62;100.00;101341.72;4988511;28;20105;-74
2023/08/12 06:11:50;;;;;;;9.43;4.85;;;;;;;19.55;100.00;101335.88;4988036;28;20050;-74
2023/08/12 06:14:17;;;;;;;6.53;4.47;;;;;;;19.52;100.00;101361.97;4986759;28;20510;-75
2023/08/12 06:16:44;;;;;;;8.10;4.63;;;;;;;19.50;100.00;101362.03;4986746;28;20035;-76
2023/08/12 06:19:11;;;;;;;7.63;4.45;;;;;;;19.44;100.00;101346.38;4987161;28;20054;-75
2023/08/12 06:21:38;;;;;;;9.00;4.25;;;;;;;19.39;100.00;101352.00;4987824;28;20042;-77
2023/08/12 06:24:05;;;;;;;11.10;4.60;;;;;;;19.36;100.00;101346.81;4987888;28;20661;-75
2023/08/12 06:26:33;;;;;;;9.18;5.00;;;;;;;19.31;100.00;101351.59;4970296;28;20078;-75
2023/08/12 06:29:00;;;;;;;8.50;4.85;;;;;;;19.28;100.00;101364.28;4986417;28;20719;-76
2023/08/12 06:31:30;;;;;;;12.02;5.05;;;;;;;19.28;100.00;101353.59;4987580;28;20510;-76
2023/08/12 06:33:57;;;;;;;9.40;5.40;;;;;;;19.26;100.00;101331.44;4987316;28;20565;-76
2023/08/12 06:36:25;;;;;;;8.02;5.38;;;;;;;19.24;100.00;101332.38;4988205;28;20133;-76
2023/08/12 06:38:52;;;;;;;10.80;5.35;;;;;;;19.26;100.00;101326.94;4988057;28;20499;-76
2023/08/12 06:41:19;;;;;;;8.32;5.60;;;;;;;19.25;100.00;101327.88;4970802;28;20050;-76
2023/08/12 06:43:46;;;;;;;11.52;5.25;;;;;;;19.26;100.00;101324.25;4985351;28;20077;-77
2023/08/12 06:46:13;;;;;;;12.63;4.88;;;;;;;19.27;100.00;101325.97;4987581;28;20584;-77
2023/08/12 06:48:40;;;;;;;6.18;4.40;;;;;;;19.26;100.00;101324.25;4975372;28;20050;-76
2023/08/12 06:51:10;;;;;;;7.95;4.65;;;;;;;19.29;100.00;101320.53;4986881;28;20053;-76
2023/08/12 06:53:39;;;;;;;9.27;4.30;;;;;;;19.35;100.00;101318.34;4987925;28;20086;-76
2023/08/12 06:56:06;;;;;;;8.68;4.88;;;;;;;19.40;100.00;101315.41;4987465;28;20069;-76
2023/08/12 06:58:33;;;;;;;8.63;4.60;;;;;;;19.48;100.00;101314.97;4969353;28;20077;-76
2023/08/12 07:01:00;;;;;;;7.07;4.53;;;;;;;19.57;100.00;101326.91;4973887;28;20142;-76
2023/08/12 07:03:27;;;;;;;7.28;4.10;;;;;;;19.61;100.00;101328.44;4972129;28;20035;-75
2023/08/12 07:05:54;;;;;;;6.30;4.03;;;;;;;19.63;100.00;101326.53;4973135;28;20046;-75
2023/08/12 07:08:22;;;;;;;6.32;3.97;;;;;;;19.62;100.00;101324.81;4973978;28;20548;-75
2023/08/12 07:10:49;;;;;;;8.73;4.03;;;;;;;19.63;100.00;101323.84;4973593;28;20054;-75
2023/08/12 07:13:16;;;;;;;8.45;3.72;;;;;;;19.62;100.00;101320.34;4972552;28;20918;-75
2023/08/12 07:15:43;;;;;;;7.53;3.75;;;;;;;19.65;100.00;101320.13;4973656;28;20046;-76
2023/08/12 07:18:10;;;;;;;7.60;4.20;;;;;;;19.65;100.00;101314.78;4991097;28;20532;-76
2023/08/12 07:20:38;;;;;;;6.03;3.88;;;;;;;19.68;100.00;101311.94;4989405;28;20049;-77
2023/08/12 07:23:05;;;;;;;7.30;3.65;;;;;;;19.69;100.00;101299.41;4972408;28;20545;-77
2023/08/12 07:25:32;;;;;;;6.65;3.58;;;;;;;19.71;100.00;101290.34;4991492;28;20046;-76
2023/08/12 07:27:59;;;;;;;8.07;3.42;;;;;;;19.78;100.00;101298.88;4988793;28;20125;-76
2023/08/12 07:30:26;;;;;;;7.18;3.80;;;;;;;19.91;100.00;101301.66;4973773;28;20516;-75
2023/08/12 07:32:53;;;;;;;6.03;3.95;;;;;;;19.97;100.00;101298.59;4989923;28;20069;-75
2023/08/12 07:35:20;;;;;;;5.03;3.45;;;;;;;20.04;100.00;101296.38;4973560;28;20052;-75
2023/08/12 07:37:47;;;;;;;6.13;3.88;;;;;;;20.07;100.00;101296.19;4989756;28;20703;-76
2023/08/12 07:40:14;;;;;;;6.35;3.60;;;;;;;20.07;100.00;101296.19;4973449;28;20502;-76
2023/08/12 07:42:41;;;;;;;5.25;3.72;;;;;;;20.05;100.00;101300.78;4990386;28;20042;-75
2023/08/12 07:45:09;;;;;;;5.03;3.45;;;;;;;20.08;100.00;101292.56;4990511;28;20427;-75
2023/08/12 07:47:36;;;;;;;6.00;4.05;;;;;;;20.09;100.00;101296.97;4989594;28;20410;-76
2023/08/12 07:50:07;;;;;;;6.18;3.70;;;;;;;20.14;100.00;101292.16;5004869;28;20081;-77
2023/08/12 07:52:34;;;;;;;7.00;4.10;;;;;;;20.17;100.00;101289.31;4975057;28;20493;-76
2023/08/12 07:55:02;;;;;;;4.30;3.90;;;;;;;20.23;100.00;101293.41;4982809;28;20502;-77
2023/08/12 07:57:29;;;;;;;5.90;4.10;;;;;;;20.27;100.00;101292.22;4985951;28;20487;-76
2023/08/12 07:59:56;;;;;;;6.63;4.30;;;;;;;20.35;100.00;101285.56;4988009;28;20038;-76
2023/08/12 08:02:23;;;;;;;6.68;4.57;;;;;;;20.40;100.00;101280.75;4989223;28;20181;-76
2023/08/12 08:04:50;;;;;;;4.43;3.65;;;;;;;20.40;100.00;101288.78;4990363;28;20514;-75
2023/08/12 08:07:17;;;;;;;3.55;3.00;;;;;;;20.38;100.00;101282.66;4990086;28;20042;-75
2023/08/12 08:09:45;;;;;;;6.32;3.40;;;;;;;20.38;100.00;101285.31;4990160;28;20051;-75
2023/08/12 08:12:12;;;;;;;3.17;2.80;;;;;;;20.35;100.00;101281.03;4972133;28;20053;-75
2023/08/12 08:14:39;;;;;;;3.10;2.80;;;;;;;20.33;100.00;101280.28;4989034;28;20446;-76
2023/08/12 08:17:07;;;;;;;3.92;3.00;;;;;;;20.33;100.00;101274.91;4969357;28;20109;-75
2023/08/12 08:19:34;;;;;;;3.63;2.80;;;;;;;20.37;100.00;101271.09;4970793;28;20094;-75
2023/08/12 08:22:01;;;;;;;3.35;3.05;;;;;;;20.42;100.00;101273.47;4971148;28;20054;-76
2023/08/12 08:24:29;;;;;;;4.50;2.88;;;;;;;20.48;100.00;101278.41;4987483;28;20054;-76
2023/08/12 08:26:56;;;;;;;5.57;3.03;;;;;;;20.49;100.00;101274.78;4990061;28;20365;-76
2023/08/12 08:29:24;;;;;;;3.15;2.85;;;;;;;20.51;100.00;101272.88;4989279;28;20627;-76
2023/08/12 08:31:51;;;;;;;3.22;2.70;;;;;;;20.57;100.00;101276.97;4990093;28;20753;-76
2023/08/12 08:34:18;;;;;;;3.97;2.75;;;;;;;20.60;100.00;101272.25;4976427;28;20577;-77
2023/08/12 08:36:45;;;;;;;6.18;3.80;;;;;;;20.63;100.00;101284.59;4977278;28;20050;-77
2023/08/12 08:39:12;;;;;;;4.72;3.80;;;;;;;20.66;100.00;101279.03;4972333;28;20046;-76
2023/08/12 08:41:40;;;;;;;4.30;3.90;;;;;;;20.65;100.00;101280.00;4972129;28;20121;-76
2023/08/12 08:44:08;;;;;;;5.68;3.97;;;;;;;20.61;100.00;101287.38;4989196;28;20058;-77
2023/08/12 08:46:36;;;;;;;4.60;3.95;;;;;;;20.58;100.00;101276.00;4998465;28;20125;-75
2023/08/12 08:49:05;;;;;;;4.53;3.90;;;;;;;20.61;100.00;101279.34;4987121;28;20109;-75
2023/08/12 08:51:32;;;;;;;5.57;3.95;;;;;;;20.64;100.00;101284.50;4988195;28;20429;-75
2023/08/12 08:54:04;;;;;;;4.78;3.97;;;;;;;20.71;100.00;101289.44;4987068;28;20554;-75
2023/08/12 08:56:32;;;;;;;4.93;4.20;;;;;;;20.73;100.00;101284.84;4970171;28;20048;-75
2023/08/12 08:59:01;;;;;;;5.95;4.70;;;;;;;20.83;100.00;101291.34;4988768;28;20549;-76
2023/08/12 09:01:29;;;;;;;5.70;4.65;;;;;;;20.89;100.00;101300.78;4970729;28;20109;-76
2023/08/12 09:03:58;;;;;;;4.40;4.00;;;;;;;21.01;100.00;101297.28;4972152;28;20575;-75
2023/08/12 09:06:27;;;;;;;5.07;4.20;;;;;;;21.33;100.00;101312.16;4988073;28;20046;-75
2023/08/12 09:08:54;;;;;;;3.50;3.20;;;;;;;21.61;100.00;101303.09;4989064;28;20041;-75
2023/08/12 09:11:22;;;;;;;3.20;2.42;;;;;;;21.83;100.00;101302.44;4987481;28;20097;-75
2023/08/12 09:13:49;;;;;;;3.17;2.20;;;;;;;21.95;100.00;101302.53;4988303;28;20038;-75
2023/08/12 09:16:17;;;;;;;3.97;2.40;;;;;;;22.12;100.00;101298.63;4951764;28;20046;-75
2023/08/12 09:18:44;;;;;;;2.22;2.03;;;;;;;22.25;100.00;101307.50;4952278;28;20082;-75
2023/08/12 09:21:11;;;;;;;3.90;2.35;;;;;;;22.29;100.00;101309.00;4975097;28;20034;-75
2023/08/12 09:23:41;;;;;;;3.00;2.40;;;;;;;22.33;100.00;101307.78;4988638;28;20124;-75
2023/08/12 09:26:20;;;;;;;3.35;2.58;;;;;;;22.33;100.00;101315.84;4971274;28;20138;-75
2023/08/12 09:28:48;;;;;;;3.13;2.72;;;;;;;22.29;100.00;101314.38;4986332;28;20046;-74
2023/08/12 09:31:28;;;;;;;3.05;2.75;;;;;;;22.22;100.00;101317.59;4988612;28;20046;-74
2023/08/12 09:34:06;;;;;;;3.00;2.80;;;;;;;22.06;99.76;101316.03;4969649;28;20518;-75
2023/08/12 09:36:34;;;;;;;2.80;2.60;;;;;;;21.94;100.00;101330.31;4969673;28;20114;-75
2023/08/12 09:39:08;;;;;;;4.55;2.50;;;;;;;21.79;99.94;101321.53;4968192;28;20570;-74
2023/08/12 09:41:39;;;;;;;2.40;2.20;;;;;;;21.67;99.84;101312.53;4969375;28;20210;-74
2023/08/12 09:44:06;;;;;;;3.78;2.40;;;;;;;21.63;99.71;101316.38;4983046;28;20129;-74
2023/08/12 09:46:33;;;;;;;2.78;2.58;;;;;;;21.63;100.00;101327.97;4986555;28;20042;-75
2023/08/12 09:49:00;;;;;;;3.00;2.70;;;;;;;21.62;100.00;101331.59;4988244;28;20066;-74
2023/08/12 09:51:35;;;;;;;3.65;2.80;;;;;;;21.64;100.00;101335.03;4971003;28;20046;-74
2023/08/12 09:54:04;;;;;;;2.80;2.60;;;;;;;21.60;100.00;101333.56;4988461;28;20160;-74
2023/08/12 09:56:37;;;;;;;3.13;2.83;;;;;;;21.61;100.00;101337.09;4988244;28;20229;-74
2023/08/12 09:59:08;;;;;;;3.20;2.90;;;;;;;21.59;100.00;101333.66;4970643;28;20049;-73
2023/08/12 10:01:38;;;;;;;3.53;3.22;;;;;;;21.50;100.00;101337.81;4984525;28;20066;-73
2023/08/12 10:04:14;;;;;;;3.03;2.83;;;;;;;21.38;100.00;101331.44;4970667;28;20555;-74
2023/08/12 10:06:42;;;;;;;3.50;3.20;;;;;;;21.43;100.00;101326.63;4988304;28;20092;-74
2023/08/12 10:09:11;;;;;;;3.45;3.15;;;;;;;21.76;100.00;101327.97;4957832;28;20073;-74
2023/08/12 10:11:39;;;;;;;3.65;3.22;;;;;;;22.11;100.00;101329.13;4968865;28;20422;-73
2023/08/12 10:14:09;;;;;;;3.88;3.53;;;;;;;22.59;100.00;101326.56;4969184;28;20051;-73
2023/08/12 10:16:37;;;;;;;2.83;2.50;;;;;;;23.11;99.64;101323.63;4967776;28;20046;-73
2023/08/12 10:19:11;;;;;;;2.70;2.50;;;;;;;23.29;96.98;101332.16;4969533;28;20094;-74
2023/08/12 10:21:39;;;;;;;1.88;1.77;;;;;;;23.12;92.37;101336.09;4984601;28;20042;-74
2023/08/12 10:24:08;;;;;;;1.55;1.33;;;;;;;22.96;89.52;101326.50;4988580;28;20588;-73
2023/08/12 10:26:35;;;;;;;2.42;1.80;;;;;;;22.83;89.63;101332.91;4971264;28;20053;-73
2023/08/12 10:29:02;;;;;;;4.65;1.75;;;;;;;22.80;91.04;101342.06;4988474;28;20081;-74
2023/08/12 10:31:30;;;;;;;3.65;1.60;;;;;;;22.87;91.20;101348.69;4987992;28;20108;-74
2023/08/12 10:33:58;;;;;;;2.45;1.80;;;;;;;23.17;91.01;101344.66;4988715;28;20097;-74
2023/08/12 10:36:28;;;;;;;1.88;1.65;;;;;;;23.38;88.36;101338.66;4974465;28;20585;-74
2023/08/12 10:38:56;;;;;;;1.98;1.77;;;;;;;23.46;90.67;101338.06;4984846;28;20046;-74
2023/08/12 10:41:25;;;;;;;1.98;1.75;;;;;;;23.55;88.72;101335.50;4974836;28;20050;-73
2023/08/12 10:43:54;;;;;;;2.10;1.90;;;;;;;23.71;85.63;101337.84;4991795;28;20058;-74
2023/08/12 10:46:33;;;;;;;2.00;1.52;;;;;;;23.82;85.40;101341.53;4990647;28;20085;-74
2023/08/12 10:49:08;;;;;;;1.30;1.10;;;;;;;23.84;86.18;101342.28;4992122;28;20069;-73
2023/08/12 10:51:54;;;;;;;2.45;1.60;;;;;;;23.72;84.41;101339.56;4988242;28;20109;-73
2023/08/12 10:54:29;;;;;;;1.48;1.20;;;;;;;23.71;85.15;101340.53;4987927;28;20120;-74
2023/08/12 10:57:02;;;;;;;1.20;1.00;;;;;;;23.77;83.96;101335.66;4990823;28;20761;-74
2023/08/12 10:59:45;;;;;;;3.08;1.05;;;;;;;23.96;83.05;101337.81;4991326;28;20041;-74
2023/08/12 11:02:36;;;;;;;1.48;1.08;;;;;;;24.03;82.89;101334.47;4972472;28;20057;-74
2023/08/12 11:05:07;;;;;;;1.38;0.90;;;;;;;24.22;83.19;101348.31;4991274;28;20278;-74
2023/08/12 11:07:42;;;;;;;1.30;1.20;;;;;;;24.31;80.13;101339.47;4990890;28;20058;-74
2023/08/12 11:10:14;;;;;;;2.38;1.10;;;;;;;24.18;79.31;101335.09;4973929;28;20405;-74
2023/08/12 11:12:56;;;;;;;1.13;1.00;;;;;;;24.00;83.25;101334.75;4988707;28;20498;-74
2023/08/12 11:15:36;;;;;;;1.30;0.93;;;;;;;23.89;84.48;101332.84;4989843;28;20105;-74